Tiempo atmosférico en la estación meteorológica de Logroño Aeropuerto, La Rioja (353 m.)



Fecha
DESCASC
Temp. máxima en grados centígrados (hora)
DESCASC
Temp. mínima en grados centígrados (hora)
DESCASC
Temp. media en grados centígrados
DESCASC
Racha de viento máxima en m/sg (hora)
DESCASC
Velocidad máxima media en intervalos de 10 minutos(hora)
DESCASC
Precipitaciones diarias en mm
DESCASC
Precipitaciones de 00:00 a 06:00 en mm
DESCASC
Precipitaciones de 06:00 a 12:00 en mm
DESCASC
Precipitaciones de 12:00 a 18:00 en mm
DESCASC
Precipitaciones de 18:00 a 24:00 en mm
DESCASC
16-01-2020 -- (--) -- (--) -- -- (--) -- (--) -- -- -- 0 0
15-01-2020 8.5 (16:00) -1.2 (08:00) 3.6 5 (11:20) 3.89 (11:20) 2.9 0 1.3 1.6 0
14-01-2020 0.7 (16:10) -2.4 (01:20) -0.9 5.83 (22:00) 4.44 (22:00) 0 0 0 0 0
13-01-2020 6.2 (15:00) -2.1 (06:20) 2 4.17 (15:40) 3.33 (15:40) 0.1 0 0.1 0 0
12-01-2020 13 (16:10) 1.7 (00:00) 7.4 8.33 (09:20) 5.83 (11:00) 0.2 0 0.1 0 0.1
11-01-2020 11.7 (15:20) 1.8 (00:00) 6.7 7.22 (14:20) 4.44 (13:50) 0.1 0 0.1 0 0
10-01-2020 10.8 (14:10) 3.6 (00:00) 7.2 9.17 (12:30) 6.11 (12:40) 2.6 1.9 0.7 0 0
09-01-2020 4.6 (14:50) 3 (00:00) 3.8 5 (03:00) 3.89 (14:50) 2 0 0 0 2
08-01-2020 14 (13:00) 3.1 (00:00) 8.5 9.17 (15:10) 6.94 (15:00) 0.1 0 0.1 0 0
07-01-2020 14.9 (16:20) -1.7 (-00:0) 6.6 8.33 (11:40) 5.28 (11:50) 0 0 0 0 0
06-01-2020 4.1 (15:30) -1.6 (-00:0) 1.2 3.61 (15:30) 2.78 (15:50) 0 0 0 0 0
05-01-2020 13.8 (16:10) 0.3 (00:00) 7.1 9.72 (11:50) 5.56 (11:50) 0.1 0 0.1 0 0
04-01-2020 12.8 (14:50) 4.7 (00:00) 8.8 7.78 (12:20) 4.72 (12:20) 0.3 0 0.2 0.1 0
03-01-2020 9.6 (16:10) -0.5 (-00:0) 4.6 8.89 (15:40) 5.56 (13:50) 0.1 0.1 0 0 0
02-01-2020 0.4 (14:40) -0.5 (-00:0) 0 4.17 (11:50) 3.06 (21:40) 1.9 0 0 0 1.9
01-01-2020 1.6 (13:40) -0.9 (-00:0) 0.4 4.17 (09:50) 2.78 (10:10) 0 0 0 0 0
31-12-2019 1.8 (15:30) 0.5 (00:00) 1.1 4.17 (01:10) 2.5 (00:40) 0 0 0 0 0
30-12-2019 2.2 (15:40) 0 (00:00) 1.1 4.72 (10:30) 3.61 (10:40) 0 0 0 0 0
29-12-2019 1.6 (00:40) -1.8 (-00:0) -0.1 3.06 (06:30) 2.78 (23:50) 0 0 0 0 0
28-12-2019 15.7 (16:30) 1.5 (00:00) 8.6 7.78 (04:40) 5.28 (11:30) 0 0 0 0 0
27-12-2019 11.6 (16:10) 1.7 (00:00) 6.7 7.78 (07:20) 5 (23:59) 0 0 0 0 0
26-12-2019 14.9 (14:50) 3.1 (00:00) 9 7.22 (07:30) 3.89 (07:30) 0 0 0 0 0
25-12-2019 15.5 (15:30) 2.7 (00:00) 9.1 3.61 (14:20) 2.5 (05:30) 0 0 0 0 0
24-12-2019 16.5 (15:10) 3.2 (00:00) 9.9 8.89 (15:10) 5.28 (17:30) 0 0 0 0 0
23-12-2019 14.4 (16:30) 7.8 (00:00) 11.1 9.17 (11:30) 5.28 (10:10) 0 0 0 0 0
22-12-2019 17.6 (14:40) 10.4 (00:00) 14 22.78 (01:30) -- (--) -- 0 -- 0 0.4
21-12-2019 15.1 (18:10) 7.6 (00:00) 11.4 21.67 (23:30) 11.67 (23:40) 3 0 0.6 2.4 0

Gráficas

Temp. máximas Temp. mínimas Temp. medias Precipitaciones Rachas de viento máximas Velocidades máximas media en intervalos de 10 minutos

Datos horarios

Fecha y hora oficial Temperatura (ºC) Velocidad del viento (km/h) Dirección del viento Racha (km/h) Dirección de racha Precipitación (mm) Presión (hPa) Tendencia (hPa) Humedad (%)
2020-01-19 23:00:00 2.9 5 Sudoeste 13 Oeste 0 989.4 1.2 63
2020-01-19 22:00:00 4 7 Oeste 21 Norte 0 989 1.6 57
2020-01-19 21:00:00 3.8 9 Sudoeste 13 Sudoeste 0 988.5 1.6 59
2020-01-19 20:00:00 4.8 7 Oeste 22 Noroeste 0 988.2 1.2 54
2020-01-19 19:00:00 4.8 11 Oeste 21 Oeste 0 987.4 0.8 60
2020-01-19 18:00:00 5.9 12 Noroeste 28 Norte 0 986.9 0.9 53
2020-01-19 17:00:00 7.4 13 Noroeste 32 Noroeste 0 987 1.2 49
2020-01-19 16:00:00 8.4 17 Noroeste 32 Norte 0 986.6 0.2 46
2020-01-19 15:00:00 8.7 15 Noroeste 35 Norte 0 986 -0.2 54
2020-01-19 14:00:00 8.4 20 Noroeste 37 Noroeste 0 985.8 0.3 55
2020-01-19 13:00:00 7.5 17 Oeste 32 Oeste 0 986.4 2.2 62
2020-01-19 12:00:00 6.7 18 Oeste 30 Noroeste 0 986.2 3.5 65
2020-01-19 11:00:00 6.6 18 Oeste 35 Oeste 0 985.5 3.8 69
2020-01-19 10:00:00 6.6 14 Oeste 28 Oeste 0 984.2 4.4 72
2020-01-19 09:00:00 6.7 9 Oeste 22 Norte 0 982.7 3.7 73
2020-01-19 08:00:00 7 9 Noroeste 26 Norte 0 981.7 3.1 79
2020-01-19 07:00:00 6.4 8 Noroeste 18 Oeste 0 979.8 1.3 92
2020-01-19 06:00:00 5.9 11 Oeste 18 Oeste 0.2 979 0.4 95
2020-01-19 05:00:00 5.1 9 Oeste 11 Oeste 0.2 978.6 -0.2 97
2020-01-19 04:00:00 5 8 Oeste 11 Oeste 0.4 978.5 -0.3 97
2020-01-19 03:00:00 5 6 Oeste 13 Oeste 1.4 978.6 0 97
2020-01-19 02:00:00 5.1 9 Oeste 11 Oeste 1.4 978.8 0.5 96
2020-01-19 01:00:00 5.3 3 Oeste 8 Sudoeste 0 978.8 0.4 97
2020-01-19 00:00:00 5.3 0 Calma 13 Oeste 0 978.6 0.6 96
2020-01-18 23:00:00 5.6 5 Oeste 15 Oeste 0.3 978.3 2.6 93
2020-01-18 22:00:00 5.6 5 Oeste 21 Oeste 0.7 978.4 2.5 90
2020-01-18 21:00:00 5.8 6 Oeste 37 Oeste 5.5 978 1.3 93
2020-01-18 20:00:00 7 20 Nordeste 33 Este 2 975.7 -0.5 94
2020-01-18 19:00:00 7.5 13 Nordeste 28 Nordeste 0.5 975.9 0 90
2020-01-18 18:00:00 9.6 14 Norte 37 Este 0 976.7 -0.7 74
2020-01-18 17:00:00 10.1 13 Nordeste 28 Nordeste 0 976.2 -3.4 73
2020-01-18 16:00:00 11.1 10 Este 22 Nordeste 0 975.9 -5.9 71
2020-01-18 15:00:00 9.4 13 Este 24 Nordeste 0 977.4 -5.9 73
2020-01-18 14:00:00 8.1 11 Este 18 Este 0 979.6 -4.6 76
2020-01-18 13:00:00 6.9 16 Este 22 Nordeste 0 981.8 -3 80
2020-01-18 12:00:00 5.8 15 Este 21 Este 0 983.3 -2 85
2020-01-18 11:00:00 4.9 13 Este 18 Este 0 984.2 -1.3 89
2020-01-18 10:00:00 3.5 12 Este 15 Sudeste 0 984.8 -1.2 93
2020-01-18 09:00:00 2.3 7 Este 13 Este 0 985.3 -1.3 97
2020-01-18 08:00:00 2.1 2 Sudeste 11 Nordeste 0 985.5 -1.5 97
2020-01-18 07:00:00 2 0 Calma 11 Norte 0 986 -1.4 96
2020-01-18 06:00:00 2.4 6 Sudoeste 9 Sudoeste 0 986.6 -0.9 95
2020-01-18 05:00:00 1.8 0 Calma 8 Oeste 0 987 -1.1 98
2020-01-18 04:00:00 1.3 3 Oeste 5 Oeste 0 987.4 -0.8 99
2020-01-18 03:00:00 1.1 3 Oeste 8 Este 0 987.5 -1.3 100
2020-01-18 02:00:00 1.3 0 Calma 11 Oeste 0 988.1 -1 98
2020-01-18 01:00:00 0.6 0 Calma -- -- 0 988.2 -1 98
2020-01-18 00:00:00 1.6 0 Calma 4 Norte 0 988.8 -0.4 96
2020-01-17 23:00:00 2.9 0 Calma 9 Oeste 0 989.1 0.2 95
2020-01-17 22:00:00 3.6 0 Calma 8 Norte 0 989.2 0.8 93
2020-01-17 21:00:00 4.9 0 Calma 8 Noroeste 0 989.2 1.7 88
2020-01-17 20:00:00 5.8 0 Calma 9 Oeste 0 988.9 1.9 86
2020-01-17 19:00:00 6.6 0 Calma 5 Oeste 0 988.4 2.4 79
2020-01-17 18:00:00 8.8 3 Sur 8 Norte 0 987.5 2 71
2020-01-17 17:00:00 9.6 4 Norte 26 Norte 0 987 1.6 68
2020-01-17 16:00:00 12.4 4 Noroeste 21 Noroeste 0 986 0.6 59
2020-01-17 15:00:00 13 12 Norte 26 Oeste 0 985.5 0.3 58
2020-01-17 14:00:00 12.5 15 Noroeste 35 Oeste 0 985.4 0.7 56
2020-01-17 13:00:00 12.6 15 Oeste 33 Oeste 0 985.4 1.2 59
2020-01-17 12:00:00 12 18 Oeste 32 Oeste 0 985.2 1.6 64
2020-01-17 11:00:00 9.4 14 Sudoeste 22 Sudoeste 0 984.7 1.7 82
2020-01-17 10:00:00 5.3 7 Sudoeste 13 Oeste 0 984.2 2.5 98
2020-01-17 09:00:00 4 5 Sudoeste 9 Sudoeste 0.1 983.6 2.3 98
2020-01-17 08:00:00 3.2 3 Oeste 11 Sudoeste 0 983 1.9 98
2020-01-17 07:00:00 1.7 0 Calma 5 Oeste 0 981.7 0.5 97
2020-01-17 06:00:00 3.2 4 Sudoeste 9 Oeste 0 981.3 0.3 98
2020-01-17 05:00:00 3.8 2 Oeste 9 Oeste 0 981.1 0.2 96
2020-01-17 04:00:00 6.3 0 Calma 11 Oeste 0 981.2 0.1 91
2020-01-17 03:00:00 4.4 5 Este 18 Norte 0 981 0.1 96
2020-01-17 02:00:00 6.1 5 Oeste 9 Oeste 0 980.9 0.5 94
2020-01-17 01:00:00 7.4 3 Este 11 Nordeste 0 981.1 1 87
2020-01-17 00:00:00 7.2 5 Este 13 Oeste 0 980.9 0.9 89
2020-01-16 23:00:00 5.8 3 Sudoeste 11 Este 0 980.4 0.7 96
2020-01-16 22:00:00 5.1 8 Este 15 Norte 0 980.1 1 97
2020-01-16 21:00:00 5.2 4 Sur 17 Oeste 0 980 0.9 97
2020-01-16 20:00:00 4.6 0 Calma 5 Norte 0 979.7 0.6 97
2020-01-16 19:00:00 5.4 0 Calma 8 Sudoeste 0 979.1 -0.5 94
2020-01-16 18:00:00 7.5 0 Calma 11 Sudoeste 0 979.1 -0.9 86
2020-01-16 17:00:00 9.3 4 Oeste 8 Oeste 0 979.1 -2.1 81
2020-01-16 16:00:00 10.6 4 Oeste 9 Oeste 0 979.6 -3 76
2020-01-16 15:00:00 11.7 2 Este 11 Sudeste 0 980 -3.3 71
2020-01-16 14:00:00 9.6 5 Este 11 Este 0 981.2 -2.2 79
2020-01-16 13:00:00 7.7 10 Sudeste 15 Este 0 982.6 -1 85
2020-01-16 12:00:00 5 12 Este 21 Este 0 983.3 -- 94
2020-01-16 11:00:00 3.2 14 Este 18 Este 0 983.4 -- 100
2020-01-16 10:00:00 1.9 10 Este -- -- -- 983.6 -- 100
2020-01-16 09:00:00 -- -- -- -- -- -- -- -- --
2020-01-16 08:00:00 -- -- -- -- -- -- -- -- --
2020-01-16 07:00:00 -- -- -- -- -- -- -- -- --
2020-01-16 06:00:00 -- -- -- -- -- -- -- -- --
2020-01-16 05:00:00 -- -- -- -- -- -- -- -- --
2020-01-16 04:00:00 -1.5 0 Calma 8 Oeste 0 983.2 0.1 100
2020-01-16 03:00:00 -1.3 0 Calma 8 Oeste 0 982.8 -0.3 100
2020-01-16 02:00:00 -0.8 3 Oeste 8 Oeste 0 983.2 0.1 100
2020-01-16 01:00:00 -0.1 0 Calma 5 Oeste 0 983.1 0.3 100
2020-01-16 00:00:00 0 0 Calma 5 Norte 0 983.1 0.1 100
2020-01-15 23:00:00 1 0 Calma 4 Oeste 0 983.1 0.5 99
2020-01-15 22:00:00 1.9 6 Sudoeste 11 Oeste 0 982.8 1 99
2020-01-15 21:00:00 1.7 6 Este 8 Este 0 983 1.7 94
2020-01-15 20:00:00 4.1 7 Sudoeste 8 Oeste 0 982.6 2 93
2020-01-15 19:00:00 6.3 5 Sur 9 Sur 0 981.8 1.6 86
2020-01-15 18:00:00 8.2 4 Sudoeste 9 Sur 0 981.3 1.5 78
2020-01-15 17:00:00 8.2 5 Sur 15 Sur 0 980.6 0.5 77
2020-01-15 16:00:00 8.3 7 Sudeste 11 Sudeste 0 980.2 -0.1 76
2020-01-15 15:00:00 7.3 4 Este 13 Sudeste 0 979.8 -0.9 79
2020-01-15 14:00:00 6.6 8 Este 13 Este 0 980.1 -0.4 81
2020-01-15 13:00:00 5.4 9 Sudeste 15 Sudeste 1.6 980.3 0.6 85
2020-01-15 12:00:00 4.3 12 Este 18 Este 1.2 980.7 1.8 90
2020-01-15 11:00:00 2.2 10 Este 13 Este 0 980.5 2.2 98
2020-01-15 10:00:00 1 7 Este 17 Sudeste 0 979.7 1.9 100
2020-01-15 09:00:00 -0.8 8 Nordeste 15 Este 0.1 978.9 1.4 100
2020-01-15 08:00:00 -1.1 6 Este 11 Nordeste 0 978.3 0.9 100
2020-01-15 07:00:00 -0.6 3 Noroeste 8 Norte 0 977.8 0 100
2020-01-15 06:00:00 -0.1 5 Oeste 11 Oeste 0 977.5 -0.3 100
2020-01-15 05:00:00 0.3 5 Norte 11 Noroeste 0 977.4 -0.3 100
2020-01-15 04:00:00 0.4 0 Calma 13 Sudeste 0 977.8 -0.1 100
2020-01-15 03:00:00 1 7 Este 15 Sudeste 0 977.8 -0.5 99
2020-01-15 02:00:00 0.6 12 Sudeste 15 Sudeste 0 977.7 -0.4 100
2020-01-15 01:00:00 0.4 9 Este 15 Este 0 977.9 0 100
2020-01-15 00:00:00 0.2 11 Este 17 Este 0 978.3 0.1 100
2020-01-14 23:00:00 -0.1 10 Este 18 Este 0 978.1 0 100
2020-01-14 22:00:00 0 16 Este 21 Este 0 977.9 -0.2 100
2020-01-14 21:00:00 0.3 10 Este 13 Este 0 978.2 0.4 100
2020-01-14 20:00:00 0.3 5 Este 11 Sudeste 0 978.1 0.5 100
2020-01-14 19:00:00 0.4 7 Sudeste 11 Este 0 978.1 0.5 100
2020-01-14 18:00:00 0.4 9 Sudeste 15 Sudeste 0 977.8 -0.1 100
2020-01-14 17:00:00 0.7 8 Este 13 Este 0 977.6 -1 100
2020-01-14 16:00:00 0.6 4 Este 11 Este 0 977.6 -1.7 100
2020-01-14 15:00:00 0.2 5 Nordeste 13 Nordeste 0 977.9 -1.7 100
2020-01-14 14:00:00 0.1 5 Este 11 Este 0 978.6 -1.1 100
2020-01-14 13:00:00 -0.4 8 Este 13 Este 0 979.3 0 100
2020-01-14 12:00:00 -0.6 9 Este 17 Este 0 979.6 0.5 100
2020-01-14 11:00:00 -0.9 8 Este 11 Nordeste 0 979.7 0.9 100
2020-01-14 10:00:00 -1.1 10 Este 13 Este 0 979.3 1 100
2020-01-14 09:00:00 -1.1 9 Este 11 Este 0 979.1 0.9 100
2020-01-14 08:00:00 -0.9 6 Nordeste 11 Este 0 978.8 0.2 100
2020-01-14 07:00:00 -1 7 Nordeste 9 Este 0 978.3 -0.6 100
2020-01-14 06:00:00 -0.7 0 Calma 8 Nordeste 0 978.2 -0.5 100
2020-01-14 05:00:00 -0.7 3 Norte 8 Norte 0 978.6 0 100
2020-01-14 04:00:00 -0.7 0 Calma 8 Noroeste 0 978.9 -0.3 100
2020-01-14 03:00:00 -1 2 Noroeste 11 Este 0 978.7 -0.9 100
2020-01-14 02:00:00 -1.9 7 Este 9 Este 0 978.6 -0.9 100
2020-01-14 01:00:00 -1.5 5 Norte 9 Noroeste 0 979.2 0 100
2020-01-14 00:00:00 -0.9 0 Calma 9 Sudoeste 0 979.6 0.4 98
2020-01-13 23:00:00 -0.6 5 Sudoeste 11 Norte 0 979.5 0.5 100
2020-01-13 22:00:00 0 5 Oeste 8 Oeste 0 979.2 0.1 98
2020-01-13 21:00:00 0.4 4 Oeste 5 Oeste 0 979.2 0.3 98
2020-01-13 20:00:00 0.3 0 Calma 11 Nordeste 0 979 -0.3 96
2020-01-13 19:00:00 2.3 10 Sudeste 13 Sudeste 0 979.1 -0.4 88
2020-01-13 18:00:00 2.8 10 Este 13 Este 0 978.9 -0.7 88
2020-01-13 17:00:00 5.3 10 Sudeste 13 Sudeste 0 979.3 -1.4 80
2020-01-13 16:00:00 5.3 8 Este 15 Este 0 979.5 -2.3 82
2020-01-13 15:00:00 6.2 8 Este 11 Nordeste 0 979.6 -3 75
2020-01-13 14:00:00 5.5 0 Calma 9 Nordeste 0 980.7 -2.1 76
2020-01-13 13:00:00 4.1 4 Este 9 Nordeste 0 981.8 -0.9 84
2020-01-13 12:00:00 3 3 Este 8 Nordeste 0 982.6 0 91
2020-01-13 11:00:00 0.9 0 Calma 8 Norte 0 982.8 0 96
2020-01-13 10:00:00 -0.7 5 Nordeste 8 Este 0 982.7 -0.3 99
2020-01-13 09:00:00 -1.7 0 Calma 4 Oeste 0.1 982.6 -0.6 100
2020-01-13 08:00:00 -1.5 0 Calma 5 Noroeste 0 982.8 -1 100
2020-01-13 07:00:00 -1.3 3 Oeste 5 Oeste 0 983 -1.6 100
2020-01-13 06:00:00 -1.9 0 Calma -- -- 0 983.2 -1.6 99
2020-01-13 05:00:00 -0.8 0 Calma 5 Oeste 0 983.8 -1.1 100
2020-01-13 04:00:00 -1.3 0 Calma 4 Norte 0 984.6 -0.9 99
2020-01-13 03:00:00 -0.3 2 Oeste 5 Oeste 0 984.8 -1.1 99
2020-01-13 02:00:00 0.1 0 Calma 4 Oeste 0 984.9 -0.9 98
2020-01-13 01:00:00 0.6 0 Calma 5 Oeste 0 985.5 -0.3 95
2020-01-13 00:00:00 1.9 3 Oeste 5 Oeste 0 985.9 -0.1 96
2020-01-12 23:00:00 2.1 0 Calma -- -- 0 985.8 -0.4 94
2020-01-12 22:00:00 3.2 0 Calma 5 Norte 0 985.8 -0.2 88
2020-01-12 21:00:00 4.5 6 Oeste 11 Sudoeste 0 986 0.3 85
2020-01-12 20:00:00 5.4 5 Oeste 9 Oeste 0 986.2 0.8 79
2020-01-12 19:00:00 7.8 6 Oeste 15 Oeste -- 986 0.7 69
2020-01-12 18:00:00 10.3 10 Oeste 21 Oeste 0 985.7 0 55
2020-01-12 17:00:00 12.8 11 Oeste 21 Oeste 0 985.4 -1.2 46
2020-01-12 16:00:00 12.8 10 Oeste 24 Oeste 0 985.3 -2.3 50
2020-01-12 15:00:00 11.9 13 Oeste 24 Sudoeste 0 985.7 -3.1 53
2020-01-12 14:00:00 9.9 15 Oeste 24 Oeste 0 986.6 -2.4 59
2020-01-12 13:00:00 8.2 14 Oeste 28 Oeste 0 987.6 -0.9 63
2020-01-12 12:00:00 6.2 13 Oeste 30 Oeste 0 988.8 1.1 70
2020-01-12 11:00:00 4.6 21 Oeste 30 Oeste 0 989 1.4 76
2020-01-12 10:00:00 3.1 14 Oeste 30 Oeste 0 988.5 0.8 83
2020-01-12 09:00:00 2.1 19 Oeste 28 Oeste 0.1 987.7 0.4 87
2020-01-12 08:00:00 2 16 Oeste 26 Oeste 0 987.6 0.3 89
2020-01-12 07:00:00 2.4 12 Oeste 24 Oeste 0 987.7 0.4 88
2020-01-12 06:00:00 2.7 13 Oeste 26 Oeste 0 987.3 0.1 86
2020-01-12 05:00:00 2.7 10 Oeste 17 Oeste 0 987.3 0.3 88
2020-01-12 04:00:00 2.9 12 Sudoeste 17 Sudoeste 0 987.3 0.2 86
2020-01-12 03:00:00 2.9 8 Oeste 17 Sudoeste 0 987.2 0 86
2020-01-12 02:00:00 3.5 9 Oeste 17 Oeste 0 987 -0.1 82
2020-01-12 01:00:00 3.7 10 Oeste 15 Oeste 0 987.1 0.1 79
2020-01-12 00:00:00 3.9 9 Oeste 15 Oeste 0 987.2 0.1 80
2020-01-11 23:00:00 4.9 13 Oeste 21 Sudoeste 0 987.1 0.1 78
2020-01-11 22:00:00 5.1 14 Oeste 21 Oeste 0 987 0.4 82
2020-01-11 21:00:00 5.1 10 Sudoeste 15 Sudoeste 0 987.1 0.9 84
2020-01-11 20:00:00 5.4 8 Oeste 11 Oeste 0 987 0.8 85
2020-01-11 19:00:00 6.7 0 Calma 15 Oeste 0 986.6 0.3 77
2020-01-11 18:00:00 8.9 9 Oeste 15 Oeste 0 986.2 -0.6 70
2020-01-11 17:00:00 10.9 13 Oeste 22 Oeste 0 986.2 -1.3 62
2020-01-11 16:00:00 11.5 13 Oeste 22 Sudoeste 0 986.3 -2.3 57
2020-01-11 15:00:00 11.3 14 Oeste 26 Oeste 0 986.8 -2.9 56
2020-01-11 14:00:00 10.5 14 Oeste 24 Sudoeste 0 987.5 -2.8 61
2020-01-11 13:00:00 9.7 12 Oeste 22 Sudoeste 0 988.6 -1.4 64
2020-01-11 12:00:00 7.9 8 Oeste 15 Sudoeste 0 989.7 -0.1 72
2020-01-11 11:00:00 6 8 Oeste 13 Sudoeste 0 990.3 0.4 77
2020-01-11 10:00:00 3.8 10 Oeste 13 Oeste 0 990 0.5 87
2020-01-11 09:00:00 1.9 5 Sudoeste 17 Oeste 0.1 989.8 0.4 94
2020-01-11 08:00:00 2.5 12 Oeste 18 Oeste 0 989.9 0.5 93
2020-01-11 07:00:00 2.8 11 Sudoeste 17 Oeste 0 989.5 -0.5 93
2020-01-11 06:00:00 2.7 9 Oeste 15 Oeste 0 989.4 -0.6 95
2020-01-11 05:00:00 2.9 8 Oeste 15 Sudoeste 0 989.4 -0.4 96
2020-01-11 04:00:00 2.7 8 Oeste 13 Oeste 0 990 0.2 97
2020-01-11 03:00:00 3 4 Oeste 11 Oeste 0 990 0.2 95
2020-01-11 02:00:00 3.7 9 Oeste 11 Oeste 0 989.8 0.2 93
2020-01-11 01:00:00 5.2 7 Oeste 15 Oeste 0 989.8 0.1 86
2020-01-11 00:00:00 6 10 Oeste 17 Oeste 0 989.8 0.3 84
2020-01-10 23:00:00 7 11 Oeste 17 Oeste 0 989.6 0.7 79
2020-01-10 22:00:00 7.7 9 Oeste 17 Oeste 0 989.7 1.2 78
2020-01-10 21:00:00 7.9 12 Sudoeste 21 Oeste 0 989.5 1.5 76
2020-01-10 20:00:00 8 7 Oeste 17 Oeste 0 988.9 1.1 73
2020-01-10 19:00:00 8.5 9 Noroeste 22 Oeste 0 988.5 1.4 71
2020-01-10 18:00:00 8.4 12 Oeste 18 Oeste 0 988 1 72
2020-01-10 17:00:00 9.3 11 Oeste 22 Noroeste 0 987.8 1 72
2020-01-10 16:00:00 10.2 12 Oeste 24 Oeste 0 987.1 -0.2 70
2020-01-10 15:00:00 9.5 13 Oeste 26 Sudoeste 0 987 -0.5 75
2020-01-10 14:00:00 10.5 19 Oeste 32 Oeste 0 986.8 -0.8 70
2020-01-10 13:00:00 10 20 Oeste 33 Oeste 0 987.3 0.7 67
2020-01-10 12:00:00 9 15 Oeste 26 Oeste 0 987.5 1.2 71
2020-01-10 11:00:00 8.6 12 Oeste 18 Oeste 0 987.6 1.6 73
2020-01-10 10:00:00 7.1 11 Oeste 18 Oeste 0.2 986.6 1.4 79
2020-01-10 09:00:00 6.6 12 Oeste 22 Sudoeste 0.1 986.3 1.6 85
2020-01-10 08:00:00 6 13 Oeste 18 Sudoeste 0.1 986 1.6 89
2020-01-10 07:00:00 5.8 14 Sudoeste 18 Oeste 0.3 985.2 0.8 92
2020-01-10 06:00:00 5.1 9 Sudoeste 15 Oeste 0 984.7 0.6 97
2020-01-10 05:00:00 4 5 Sur 11 Norte 0 984.4 0.7 98
2020-01-10 04:00:00 4.2 4 Oeste 11 Oeste 0 984.4 0.7 99
2020-01-10 03:00:00 5.1 3 Oeste 11 Nordeste 0 984.1 0.4 98
2020-01-10 02:00:00 5.6 7 Oeste 17 Oeste 0.1 983.7 0.5 96
2020-01-10 01:00:00 4.7 6 Oeste 11 Sudoeste 1.8 983.7 1.1 99
2020-01-10 00:00:00 4.6 4 Oeste 9 Oeste 1.9 983.7 1.5 98
2020-01-09 23:00:00 4.6 0 Calma 9 Oeste 0 983.2 0.6 97
2020-01-09 22:00:00 4.4 3 Sudoeste 8 Este 0 982.6 -0.2 97
2020-01-09 21:00:00 4.2 0 Calma 8 Sudoeste 0.1 982.2 -0.7 97
2020-01-09 20:00:00 4.4 5 Sudeste 8 Sudeste 0 982.6 0.5 95
2020-01-09 19:00:00 4.3 0 Calma 13 Sudoeste 0 982.8 1.2 95
2020-01-09 18:00:00 4.1 8 Sudoeste 18 Sur 0 982.9 1.6 95
2020-01-09 17:00:00 4 5 Este 13 Este 0 982.1 -0.4 95
2020-01-09 16:00:00 4.1 9 Nordeste 18 Este 0 981.6 -2 95
2020-01-09 15:00:00 4.6 10 Sudeste 17 Sudeste 0 981.3 -3.1 93
2020-01-09 14:00:00 4.3 5 Este 15 Este 0 982.5 -2.4 94
2020-01-09 13:00:00 4.3 8 Este 13 Este 0 983.6 -1.4 95
2020-01-09 12:00:00 4.1 11 Este 15 Este 0 984.4 -0.4 97
2020-01-09 11:00:00 3.9 6 Nordeste 9 Este 0 984.9 -0.2 98
2020-01-09 10:00:00 3.3 0 Calma 5 Este 0 985 -0.4 99
2020-01-09 09:00:00 3.2 0 Calma 4 Nordeste 0 984.8 -0.5 99
2020-01-09 08:00:00 3.2 0 Calma 5 Oeste 0 985.1 -0.3 98
2020-01-09 07:00:00 3.1 2 Sur 11 Sudeste 0 985.4 -0.8 99
2020-01-09 06:00:00 3 7 Este 11 Este 0 985.3 -1.3 99
2020-01-09 05:00:00 3.2 9 Este 11 Este 0 985.4 -1.5 97
2020-01-09 04:00:00 3.2 8 Sudeste 15 Sudeste 0 986.2 -0.9 96
2020-01-09 03:00:00 3.2 11 Sudeste 18 Este 0 986.6 -0.9 97
2020-01-09 02:00:00 3.3 5 Sudeste 11 Este 0 986.9 -0.8 98
2020-01-09 01:00:00 3.3 3 Este 9 Este 0 987.1 -0.3 100
2020-01-09 00:00:00 3.1 9 Este 13 Este 0 987.5 0.2 100
2020-01-08 23:00:00 3.1 10 Este 18 Este 0 987.7 0.2 100
2020-01-08 22:00:00 3.1 13 Este 18 Este 0 987.4 0 100
2020-01-08 21:00:00 3.2 16 Este 22 Este 0 987.3 0.3 100
2020-01-08 20:00:00 3.7 17 Este 22 Este 0 987.5 0.8 100
2020-01-08 19:00:00 4.6 15 Este 21 Este 0 987.4 0.9 98
2020-01-08 18:00:00 4.9 18 Este 22 Este 0 987 0.6 95
2020-01-08 17:00:00 8.1 17 Este 24 Este 0 986.7 0.2 81
2020-01-08 16:00:00 8.6 20 Este 33 Este 0 986.5 -0.3 75
2020-01-08 15:00:00 8.5 25 Este 30 Este 0 986.4 -1 75
2020-01-08 14:00:00 9.5 23 Este 28 Este 0 986.5 -1.5 72
2020-01-08 13:00:00 13.9 4 Noroeste 21 Oeste 0 986.8 -0.9 62
2020-01-08 12:00:00 12.2 14 Oeste 21 Oeste 0 987.4 0.3 65
2020-01-08 11:00:00 9.8 13 Oeste 21 Oeste 0 988 1.4 71
2020-01-08 10:00:00 7.9 13 Sudoeste 24 Oeste 0 987.7 1.5 75
2020-01-08 09:00:00 6.8 12 Oeste 22 Oeste 0.1 987.1 0.8 75
2020-01-08 08:00:00 6.6 15 Oeste 28 Sudoeste 0 986.6 0 76
2020-01-08 07:00:00 6.7 18 Oeste 28 Oeste 0 986.2 -0.7 74
2020-01-08 06:00:00 6.6 14 Oeste 22 Oeste 0 986.3 -0.8 75
2020-01-08 05:00:00 7.4 13 Oeste 26 Oeste 0 986.6 -0.7 66
2020-01-08 04:00:00 7 12 Oeste 18 Oeste 0 986.9 -0.8 69
2020-01-08 03:00:00 7.5 9 Oeste 24 Oeste 0 987.1 -0.8 70
2020-01-08 02:00:00 7.5 9 Oeste 21 Oeste 0 987.3 -0.7 69
2020-01-08 01:00:00 7.9 12 Oeste 22 Oeste 0 987.7 -0.2 71
2020-01-08 00:00:00 7.9 15 Oeste 22 Oeste 0 987.9 0.3 75
2020-01-07 23:00:00 8.7 14 Oeste 22 Oeste 0 988 0.9 76
2020-01-07 22:00:00 8.3 10 Oeste 15 Sudoeste 0 987.9 0.7 81
2020-01-07 21:00:00 7.5 6 Oeste 9 Noroeste 0 987.6 1 86
2020-01-07 20:00:00 8.1 3 Nordeste 13 Sudoeste 0 987.1 0.6 81
2020-01-07 19:00:00 9.2 8 Sudoeste 15 Oeste 0 987.2 0.7 78
2020-01-07 18:00:00 12.3 10 Oeste 18 Sudoeste 0 986.6 0 65
2020-01-07 17:00:00 14.4 13 Sudoeste 21 Oeste 0 986.5 -0.9 53
2020-01-07 16:00:00 14.6 13 Oeste 24 Oeste 0 986.5 -2 51
2020-01-07 15:00:00 13.8 12 Oeste 24 Oeste 0 986.6 -2.5 52
2020-01-07 14:00:00 12 13 Oeste 26 Oeste 0 987.4 -1.8 55
2020-01-07 13:00:00 9.7 13 Oeste 24 Oeste 0 988.5 -1 62
2020-01-07 12:00:00 8.1 13 Oeste 30 Oeste 0 989.1 0.1 64
2020-01-07 11:00:00 5.6 14 Oeste 26 Oeste 0 989.2 0.6 72
2020-01-07 10:00:00 4 13 Oeste 18 Sudoeste 0 989.5 1.1 79
2020-01-07 09:00:00 3.2 12 Oeste 22 Oeste 0 989 0.4 78
2020-01-07 08:00:00 2.9 14 Sudoeste 22 Oeste 0 988.6 0.2 82
2020-01-07 07:00:00 2.3 15 Oeste 21 Oeste 0 988.4 -0.3 89
2020-01-07 06:00:00 2.3 11 Oeste 21 Oeste 0 988.6 -0.4 91
2020-01-07 05:00:00 2.7 14 Oeste 21 Oeste 0 988.4 -0.7 92
2020-01-07 04:00:00 2.4 13 Sudoeste 17 Sudoeste 0 988.7 -0.2 93
2020-01-07 03:00:00 3.1 8 Sudoeste 17 Sudoeste 0 989 0.1 91
2020-01-07 02:00:00 2.4 10 Sudoeste 15 Sudoeste 0 989.1 0.1 96
2020-01-07 01:00:00 -1.4 5 Sudoeste 11 Sudoeste 0 988.9 -0.3 100
2020-01-07 00:00:00 -0.4 5 Sudeste 11 Oeste 0 988.9 0.4 100
2020-01-06 23:00:00 0.2 0 Calma 9 Oeste 0 989 0.9 100
2020-01-06 22:00:00 0.6 4 Oeste 8 Noroeste 0 989.2 1.3 100
2020-01-06 21:00:00 0.8 3 Oeste 9 Sur 0 988.5 1.5 100
2020-01-06 20:00:00 1.6 5 Sudoeste 9 Sudoeste 0 988.1 1.8 100
2020-01-06 19:00:00 1.8 3 Sur 8 Sudeste 0 987.9 2 100
2020-01-06 18:00:00 2.2 7 Este 11 Este 0 987 0.9 99
2020-01-06 17:00:00 2.9 8 Nordeste 13 Este 0 986.3 -0.1 96
2020-01-06 16:00:00 3.5 10 Este 13 Nordeste 0 985.9 -1.7 93
2020-01-06 15:00:00 3.5 5 Este 11 Sudeste 0 986.1 -2.3 93
2020-01-06 14:00:00 3 3 Nordeste 8 Este 0 986.4 -2.1 94
2020-01-06 13:00:00 1.7 3 Oeste 11 Noroeste 0 987.6 -0.3 99
2020-01-06 12:00:00 1.3 2 Oeste 9 Oeste 0 988.4 0.5 99
2020-01-06 11:00:00 0.9 3 Nordeste 11 Este 0 988.5 1.2 100
2020-01-06 10:00:00 0.6 0 Calma 8 Este 0 987.9 1.4 100